TimeCST,TemperatureF,Dew PointF,Humidity,Sea Level PressureIn,VisibilityMPH,Wind Direction,Wind SpeedMPH,Gust SpeedMPH,PrecipitationIn,Events,Conditions,WindDirDegrees,DateUTC
12:15 AM,66.2,61.0,83,29.91,7.0,North,11.5,16.1,N/A,,Overcast,360,2013-02-11 06:15:00
12:35 AM,66.2,61.2,84,29.91,7.0,North,16.1,-,N/A,,Overcast,350,2013-02-11 06:35:00
12:55 AM,65.7,60.8,84,29.91,5.0,North,13.8,-,N/A,,Haze,350,2013-02-11 06:55:00
1:15 AM,65.3,60.4,84,29.90,5.0,North,12.7,-,N/A,,Overcast,360,2013-02-11 07:15:00
1:35 AM,65.5,59.9,82,29.90,5.0,North,13.8,-,N/A,,Haze,360,2013-02-11 07:35:00
1:55 AM,65.8,59.4,80,29.90,7.0,North,10.4,-,N/A,,Overcast,360,2013-02-11 07:55:00
2:15 AM,66.2,59.2,78,29.89,7.0,North,11.5,-,N/A,,Overcast,10,2013-02-11 08:15:00
2:35 AM,66.7,58.6,75,29.89,7.0,North,11.5,-,N/A,,Overcast,360,2013-02-11 08:35:00
2:55 AM,67.1,58.3,73,29.89,7.0,North,12.7,-,N/A,,Overcast,350,2013-02-11 08:55:00
3:15 AM,67.1,57.6,71,29.88,7.0,North,9.2,-,N/A,,Overcast,360,2013-02-11 09:15:00
3:35 AM,67.3,57.0,70,29.88,7.0,North,9.2,-,N/A,,Overcast,360,2013-02-11 09:35:00
3:55 AM,67.5,55.9,66,29.88,7.0,North,9.2,-,N/A,,Overcast,360,2013-02-11 09:55:00
4:15 AM,67.5,55.6,66,29.87,10.0,North,6.9,-,N/A,,Overcast,10,2013-02-11 10:15:00
4:35 AM,67.5,54.9,64,29.87,7.0,North,9.2,-,N/A,,Overcast,350,2013-02-11 10:35:00
4:55 AM,67.6,54.0,61,29.89,10.0,NNW,9.2,-,N/A,,Overcast,340,2013-02-11 10:55:00
5:15 AM,67.3,52.7,59,29.90,10.0,NNW,10.4,-,N/A,,Overcast,340,2013-02-11 11:15:00
5:35 AM,67.3,54.5,63,29.90,10.0,North,11.5,-,N/A,,Overcast,360,2013-02-11 11:35:00
5:55 AM,67.1,55.4,66,29.90,7.0,North,11.5,-,N/A,,Overcast,10,2013-02-11 11:55:00
6:15 AM,67.3,55.2,65,29.90,7.0,North,10.4,-,N/A,,Overcast,360,2013-02-11 12:15:00
6:35 AM,67.1,54.5,64,29.90,7.0,North,9.2,-,N/A,,Overcast,10,2013-02-11 12:35:00
6:55 AM,67.1,54.5,64,29.91,7.0,North,9.2,-,N/A,,Overcast,360,2013-02-11 12:55:00
7:15 AM,66.9,54.1,63,29.92,7.0,North,9.2,-,N/A,,Overcast,360,2013-02-11 13:15:00
7:35 AM,66.9,54.0,63,29.93,7.0,North,8.1,-,N/A,,Overcast,360,2013-02-11 13:35:00
7:55 AM,67.1,55.4,66,29.93,7.0,North,8.1,-,N/A,,Overcast,10,2013-02-11 13:55:00
8:15 AM,67.1,56.1,68,29.94,7.0,North,9.2,-,N/A,,Overcast,10,2013-02-11 14:15:00
8:35 AM,67.3,57.2,70,29.95,5.0,North,8.1,-,N/A,,Haze,360,2013-02-11 14:35:00
8:55 AM,68.0,57.2,68,29.95,5.0,North,8.1,-,N/A,,Haze,10,2013-02-11 14:55:00
9:15 AM,68.4,57.7,69,29.96,5.0,North,8.1,-,N/A,,Haze,360,2013-02-11 15:15:00
9:35 AM,68.9,57.9,68,29.96,5.0,North,8.1,-,N/A,,Haze,10,2013-02-11 15:35:00
9:55 AM,70.0,58.5,67,29.96,5.0,NNE,9.2,-,N/A,,Haze,20,2013-02-11 15:55:00
10:15 AM,71.2,59.0,65,29.97,5.0,North,8.1,-,N/A,,Haze,10,2013-02-11 16:15:00
10:35 AM,72.5,58.5,61,29.97,4.0,North,9.2,-,N/A,,Haze,350,2013-02-11 16:35:00
10:55 AM,73.4,58.1,59,29.96,5.0,North,4.6,-,N/A,,Haze,350,2013-02-11 16:55:00
11:15 AM,74.1,59.0,59,29.95,5.0,NNW,3.5,-,N/A,,Haze,340,2013-02-11 17:15:00
11:35 AM,75.7,59.5,57,29.95,5.0,NNW,4.6,-,N/A,,Haze,330,2013-02-11 17:35:00
11:55 AM,76.5,58.5,54,29.94,5.0,NNW,5.8,-,N/A,,Haze,330,2013-02-11 17:55:00
12:15 PM,77.9,59.5,53,29.93,5.0,NNW,6.9,-,N/A,,Haze,340,2013-02-11 18:15:00
12:35 PM,79.0,60.1,52,29.92,5.0,NW,5.8,-,N/A,,Haze,320,2013-02-11 18:35:00
12:55 PM,80.1,60.8,52,29.91,5.0,NNW,4.6,-,N/A,,Haze,340,2013-02-11 18:55:00
1:15 PM,80.8,60.3,49,29.89,5.0,Calm,Calm,-,N/A,,Haze,0,2013-02-11 19:15:00
1:35 PM,81.9,60.3,48,29.88,5.0,NNW,4.6,-,N/A,,Haze,340,2013-02-11 19:35:00
1:55 PM,82.8,61.0,48,29.87,7.0,North,8.1,-,N/A,,Clear,10,2013-02-11 19:55:00
2:15 PM,83.3,61.5,48,29.86,5.0,ENE,6.9,-,N/A,,Haze,60,2013-02-11 20:15:00
2:35 PM,83.7,61.9,48,29.85,5.0,North,4.6,-,N/A,,Haze,360,2013-02-11 20:35:00
2:55 PM,84.9,61.3,45,29.84,5.0,ENE,4.6,-,N/A,,Haze,60,2013-02-11 20:55:00
3:15 PM,85.1,61.7,45,29.83,5.0,NNE,3.5,-,N/A,,Haze,20,2013-02-11 21:15:00
4:55 PM,82.6,62.6,51,29.81,5.0,NE,16.1,20.7,N/A,,Haze,40,2013-02-11 22:55:00
5:15 PM,79.2,62.4,56,29.82,5.0,NE,17.3,-,N/A,,Haze,50,2013-02-11 23:15:00
5:35 PM,76.6,62.6,62,29.83,5.0,NE,15.0,-,N/A,,Haze,50,2013-02-11 23:35:00
5:55 PM,74.3,62.4,66,29.84,4.0,NE,12.7,-,N/A,,Haze,40,2013-02-11 23:55:00
6:15 PM,72.3,62.8,72,29.84,5.0,NNE,13.8,-,N/A,,Haze,30,2013-02-12 00:15:00
6:35 PM,71.6,61.7,71,29.85,5.0,NNE,15.0,-,N/A,,Haze,30,2013-02-12 00:35:00
6:55 PM,69.8,61.3,74,29.85,5.0,NNE,15.0,18.4,N/A,,Haze,20,2013-02-12 00:55:00
7:15 PM,68.0,61.2,79,29.86,5.0,NNE,13.8,-,N/A,,Haze,30,2013-02-12 01:15:00
7:35 PM,67.3,61.3,81,29.86,7.0,NNE,12.7,17.3,N/A,,Overcast,30,2013-02-12 01:35:00
7:55 PM,66.9,61.2,82,29.87,5.0,NNE,13.8,-,N/A,,Haze,20,2013-02-12 01:55:00
8:15 PM,66.4,61.3,84,29.89,5.0,NNE,12.7,18.4,N/A,,Haze,30,2013-02-12 02:15:00
8:35 PM,66.4,61.3,84,29.89,7.0,NNE,13.8,-,N/A,,Overcast,20,2013-02-12 02:35:00
8:55 PM,66.2,61.3,84,29.90,7.0,NE,12.7,-,N/A,,Overcast,40,2013-02-12 02:55:00
9:15 PM,66.2,61.3,84,29.90,7.0,NNE,10.4,-,N/A,,Overcast,30,2013-02-12 03:15:00
9:35 PM,66.4,61.7,85,29.90,7.0,NE,11.5,-,N/A,,Overcast,50,2013-02-12 03:35:00
9:55 PM,66.2,61.7,85,29.91,7.0,NE,9.2,-,N/A,,Overcast,50,2013-02-12 03:55:00
10:15 PM,65.7,61.7,87,29.90,5.0,NE,11.5,-,N/A,,Overcast,50,2013-02-12 04:15:00
10:35 PM,65.8,61.9,87,29.90,5.0,NE,12.7,16.1,N/A,,Overcast,40,2013-02-12 04:35:00
10:55 PM,65.7,61.7,87,29.90,5.0,NE,11.5,-,N/A,,Overcast,40,2013-02-12 04:55:00
11:15 PM,65.3,61.7,88,29.89,5.0,NE,11.5,-,N/A,,Overcast,40,2013-02-12 05:15:00
11:35 PM,65.3,61.7,88,29.89,7.0,NNE,6.9,-,N/A,,Overcast,30,2013-02-12 05:35:00
11:55 PM,65.3,61.3,87,29.89,7.0,NNE,11.5,-,N/A,,Overcast,20,2013-02-12 05:55:00